createdAt,value
2023-02-01T00:00:11.051Z,8.23
2023-02-01T00:01:11.065Z,8.10
2023-02-01T00:02:11.094Z,8.12
2023-02-01T00:03:11.043Z,8.18
2023-02-01T00:04:11.025Z,8.20
2023-02-01T00:05:11.024Z,8.15
2023-02-01T00:06:11.022Z,8.08
2023-02-01T00:07:14.181Z,8.04
2023-02-01T00:08:11.014Z,8.10
2023-02-01T00:09:11.015Z,8.07
2023-02-01T00:10:10.998Z,8.11
2023-02-01T00:11:10.989Z,8.05
2023-02-01T00:12:10.991Z,8.05
2023-02-01T00:13:10.986Z,8.16
2023-02-01T00:14:10.973Z,8.10
2023-02-01T00:15:11.005Z,8.11
2023-02-01T00:16:11.074Z,8.15
2023-02-01T00:17:10.965Z,8.16
2023-02-01T00:18:10.963Z,8.23
2023-02-01T00:19:10.966Z,7.97
2023-02-01T00:20:10.944Z,7.98
2023-02-01T00:21:10.954Z,7.95
2023-02-01T00:22:10.935Z,7.95
2023-02-01T00:23:10.951Z,7.95
2023-02-01T00:24:10.946Z,8.10
2023-02-01T00:25:10.952Z,7.98
2023-02-01T00:26:10.944Z,8.00
2023-02-01T00:27:10.920Z,7.97
2023-02-01T00:28:10.925Z,7.95
2023-02-01T00:29:10.953Z,8.01
2023-02-01T00:30:10.912Z,7.92
2023-02-01T00:31:11.051Z,7.97
2023-02-01T00:32:10.897Z,7.92
2023-02-01T00:33:10.884Z,7.98
2023-02-01T00:34:10.879Z,7.98
2023-02-01T00:35:10.870Z,8.00
2023-02-01T00:36:10.879Z,7.90
2023-02-01T00:37:10.870Z,8.02
2023-02-01T00:38:10.858Z,8.07
2023-02-01T00:39:10.851Z,7.97
2023-02-01T00:40:10.844Z,7.95
2023-02-01T00:41:10.854Z,7.92
2023-02-01T00:42:10.847Z,7.89
2023-02-01T00:43:10.832Z,7.79
2023-02-01T00:44:10.833Z,7.92
2023-02-01T00:45:10.820Z,7.77
2023-02-01T00:46:10.860Z,7.72
2023-02-01T00:47:10.844Z,7.87
2023-02-01T00:48:10.807Z,7.85
2023-02-01T00:49:10.809Z,7.83
2023-02-01T00:50:10.793Z,7.92
2023-02-01T00:51:10.788Z,7.95
2023-02-01T00:52:10.789Z,7.92
2023-02-01T00:53:10.782Z,7.93
2023-02-01T00:54:10.779Z,7.71
2023-02-01T00:55:10.765Z,7.97
2023-02-01T00:56:10.767Z,7.97
2023-02-01T00:57:10.766Z,7.97
2023-02-01T00:58:10.782Z,7.93
2023-02-01T00:59:10.745Z,7.98
2023-02-01T01:00:10.746Z,7.92
2023-02-01T01:01:10.814Z,7.87
2023-02-01T01:02:10.826Z,7.87
2023-02-01T01:03:10.749Z,7.87
2023-02-01T01:04:10.733Z,7.87
2023-02-01T01:05:10.729Z,7.92
2023-02-01T01:06:10.722Z,8.00
2023-02-01T01:07:10.707Z,8.00
2023-02-01T01:08:10.710Z,8.12
2023-02-01T01:09:10.694Z,8.11
2023-02-01T01:10:10.696Z,8.04
2023-02-01T01:11:10.685Z,8.02
2023-02-01T01:12:10.686Z,8.08
2023-02-01T01:13:10.679Z,8.16
2023-02-01T01:14:10.681Z,8.28
2023-02-01T01:15:10.670Z,8.25
2023-02-01T01:16:10.724Z,8.10
2023-02-01T01:17:10.661Z,7.93
2023-02-01T01:18:10.652Z,7.93
2023-02-01T01:19:10.671Z,7.97
2023-02-01T01:20:10.667Z,8.11
2023-02-01T01:21:10.630Z,8.00
2023-02-01T01:22:10.650Z,8.07
2023-02-01T01:23:10.627Z,8.08
2023-02-01T01:24:10.626Z,8.15
2023-02-01T01:25:10.625Z,8.07
2023-02-01T01:26:10.613Z,8.08
2023-02-01T01:27:10.609Z,7.98
2023-02-01T01:28:10.601Z,7.89
2023-02-01T01:29:10.598Z,8.00
2023-02-01T01:30:10.596Z,7.85
2023-02-01T01:31:10.739Z,7.92
2023-02-01T01:32:10.580Z,7.95
2023-02-01T01:33:10.573Z,7.85
2023-02-01T01:34:10.580Z,7.80
2023-02-01T01:35:10.604Z,7.90
2023-02-01T01:36:10.566Z,7.87
2023-02-01T01:37:10.607Z,7.86
2023-02-01T01:38:10.559Z,7.87
2023-02-01T01:39:10.549Z,8.00
2023-02-01T01:40:10.567Z,8.00
2023-02-01T01:41:10.527Z,7.86
2023-02-01T01:42:10.545Z,7.71
2023-02-01T01:43:10.530Z,7.79
2023-02-01T01:44:10.519Z,7.85
2023-02-01T01:45:10.530Z,7.83
2023-02-01T01:46:10.512Z,7.86
2023-02-01T01:47:10.503Z,7.85
2023-02-01T01:48:10.514Z,7.97
2023-02-01T01:49:10.492Z,7.97
2023-02-01T01:50:10.489Z,7.90
2023-02-01T01:51:10.576Z,7.87
2023-02-01T01:52:10.484Z,8.00
2023-02-01T01:53:10.490Z,7.89
2023-02-01T01:54:10.471Z,7.87
2023-02-01T01:55:10.468Z,7.92
2023-02-01T01:56:10.468Z,7.90
2023-02-01T01:57:10.450Z,7.86
2023-02-01T01:58:10.451Z,7.87
2023-02-01T01:59:10.458Z,7.98
2023-02-01T02:00:10.443Z,7.89
2023-02-01T02:01:10.487Z,7.83
2023-02-01T02:02:10.471Z,7.87
2023-02-01T02:03:10.426Z,7.90
2023-02-01T02:04:10.411Z,7.89
2023-02-01T02:05:10.425Z,7.85
2023-02-01T02:06:10.419Z,7.86
2023-02-01T02:07:10.435Z,7.92
2023-02-01T02:08:10.396Z,7.92
2023-02-01T02:09:10.390Z,8.01
2023-02-01T02:10:10.391Z,8.00
2023-02-01T02:11:10.379Z,8.00
2023-02-01T02:12:10.380Z,8.00
2023-02-01T02:13:10.369Z,7.93
2023-02-01T02:14:10.378Z,7.93
2023-02-01T02:15:10.359Z,7.92
2023-02-01T02:16:10.410Z,7.97
2023-02-01T02:17:10.348Z,7.95
2023-02-01T02:18:10.346Z,8.00
2023-02-01T02:19:10.350Z,7.90
2023-02-01T02:20:10.340Z,7.93
2023-02-01T02:21:10.326Z,7.95
2023-02-01T02:22:10.334Z,8.05
2023-02-01T02:23:10.355Z,8.02
2023-02-01T02:24:10.318Z,8.07
2023-02-01T02:25:10.317Z,8.10
2023-02-01T02:26:10.304Z,8.04
2023-02-01T02:27:10.295Z,8.11
2023-02-01T02:28:10.305Z,8.01
2023-02-01T02:29:10.283Z,8.15
2023-02-01T02:30:10.286Z,8.00
2023-02-01T02:31:10.283Z,8.01
2023-02-01T02:32:10.278Z,7.97
2023-02-01T02:33:10.276Z,8.12
2023-02-01T02:34:10.264Z,8.15
2023-02-01T02:35:10.253Z,8.08
2023-02-01T02:36:10.266Z,8.10
2023-02-01T02:37:10.251Z,8.05
2023-02-01T02:38:10.250Z,8.00
2023-02-01T02:39:10.263Z,8.08
2023-02-01T02:40:10.235Z,8.08
2023-02-01T02:41:10.227Z,8.12
2023-02-01T02:42:10.234Z,8.00
2023-02-01T02:43:10.217Z,7.97
2023-02-01T02:44:10.212Z,8.05
2023-02-01T02:45:10.201Z,8.05
2023-02-01T02:46:10.294Z,8.05
2023-02-01T02:47:10.195Z,8.07
2023-02-01T02:48:10.212Z,8.05
2023-02-01T02:49:10.189Z,8.07
2023-02-01T02:50:10.179Z,8.15
2023-02-01T02:51:10.188Z,8.02
2023-02-01T02:52:10.175Z,8.11
2023-02-01T02:53:10.166Z,8.08
2023-02-01T02:54:10.167Z,8.16
2023-02-01T02:55:10.194Z,8.10
2023-02-01T02:56:10.148Z,8.12
2023-02-01T02:57:10.140Z,8.04
2023-02-01T02:58:10.150Z,8.08
2023-02-01T02:59:10.133Z,8.04
2023-02-01T03:00:10.140Z,8.07
2023-02-01T03:01:10.197Z,8.15
2023-02-01T03:02:10.120Z,8.22
2023-02-01T03:03:10.119Z,8.15
2023-02-01T03:04:10.232Z,8.04
2023-02-01T03:05:10.108Z,8.07
2023-02-01T03:06:10.108Z,8.10
2023-02-01T03:07:10.094Z,8.10
2023-02-01T03:08:10.090Z,8.10
2023-02-01T03:09:10.084Z,8.05
2023-02-01T03:10:10.088Z,8.10
2023-02-01T03:11:10.101Z,8.00
2023-02-01T03:12:10.072Z,8.07
2023-02-01T03:13:10.075Z,8.11
2023-02-01T03:14:10.057Z,8.04
2023-02-01T03:15:10.056Z,8.08
2023-02-01T03:16:10.087Z,8.11
2023-02-01T03:17:10.049Z,8.05
2023-02-01T03:18:10.044Z,8.02
2023-02-01T03:19:10.036Z,8.08
2023-02-01T03:20:10.031Z,8.02
2023-02-01T03:21:10.025Z,8.15
2023-02-01T03:22:10.027Z,8.28
2023-02-01T03:23:10.011Z,8.19
2023-02-01T03:24:10.013Z,8.10
2023-02-01T03:25:10.002Z,8.10
2023-02-01T03:26:10.001Z,8.10
2023-02-01T03:27:10.032Z,8.05
2023-02-01T03:28:09.992Z,8.08
2023-02-01T03:29:09.977Z,8.16
2023-02-01T03:30:09.979Z,8.22
2023-02-01T03:31:10.085Z,8.07
2023-02-01T03:32:09.969Z,8.11
2023-02-01T03:33:09.960Z,8.18
2023-02-01T03:34:09.959Z,8.10
2023-02-01T03:35:09.961Z,8.11
2023-02-01T03:36:09.953Z,8.11
2023-02-01T03:37:09.943Z,8.12
2023-02-01T03:38:09.941Z,8.02
2023-02-01T03:39:09.927Z,8.07
2023-02-01T03:40:09.935Z,8.05
2023-02-01T03:41:09.921Z,8.10
2023-02-01T03:42:09.913Z,8.07
2023-02-01T03:43:09.933Z,8.20
2023-02-01T03:44:09.912Z,8.11
2023-02-01T03:45:09.900Z,8.10
2023-02-01T03:46:09.963Z,8.29
2023-02-01T03:47:09.888Z,8.26
2023-02-01T03:48:09.890Z,8.15
2023-02-01T03:49:09.892Z,8.08
2023-02-01T03:50:09.881Z,8.15
2023-02-01T03:51:09.873Z,8.11
2023-02-01T03:52:09.965Z,8.16
2023-02-01T03:53:09.866Z,8.05
2023-02-01T03:54:09.857Z,8.10
2023-02-01T03:55:09.850Z,8.10
2023-02-01T03:56:09.851Z,8.16
2023-02-01T03:57:09.850Z,8.12
2023-02-01T03:58:09.839Z,8.20
2023-02-01T03:59:09.853Z,8.22
2023-02-01T04:00:09.837Z,8.26
2023-02-01T04:01:09.889Z,8.26
2023-02-01T04:02:09.848Z,8.28
2023-02-01T04:03:09.813Z,8.15
2023-02-01T04:04:09.809Z,8.12
2023-02-01T04:05:09.803Z,8.16
2023-02-01T04:06:09.799Z,8.30
2023-02-01T04:07:09.788Z,8.38
2023-02-01T04:08:09.790Z,8.30
2023-02-01T04:09:09.792Z,8.41
2023-02-01T04:10:09.776Z,8.36
2023-02-01T04:11:09.765Z,8.43
2023-02-01T04:12:09.810Z,8.33
2023-02-01T04:13:09.761Z,8.34
2023-02-01T04:14:09.754Z,8.26
2023-02-01T04:15:09.786Z,8.30
2023-02-01T04:16:09.749Z,8.38
2023-02-01T04:17:09.758Z,8.38
2023-02-01T04:18:09.750Z,8.40
2023-02-01T04:19:09.731Z,8.33
2023-02-01T04:20:09.726Z,8.20
2023-02-01T04:21:09.718Z,8.26
2023-02-01T04:22:09.723Z,8.38
2023-02-01T04:23:09.709Z,8.43
2023-02-01T04:24:09.709Z,8.40
2023-02-01T04:25:09.704Z,8.45
2023-02-01T04:26:09.698Z,8.48
2023-02-01T04:27:09.701Z,8.58
2023-02-01T04:28:09.686Z,8.48
2023-02-01T04:29:09.681Z,8.62
2023-02-01T04:30:09.677Z,8.62
2023-02-01T04:31:09.840Z,8.47
2023-02-01T04:32:09.710Z,8.45
2023-02-01T04:33:09.664Z,8.50
2023-02-01T04:34:09.684Z,8.62
2023-02-01T04:35:09.657Z,8.55
2023-02-01T04:36:09.651Z,8.47
2023-02-01T04:37:09.644Z,8.55
2023-02-01T04:38:09.643Z,8.66
2023-02-01T04:39:09.633Z,8.68
2023-02-01T04:40:09.657Z,8.76
2023-02-01T04:41:09.625Z,8.71
2023-02-01T04:42:09.657Z,8.58
2023-02-01T04:43:09.612Z,8.58
2023-02-01T04:44:09.613Z,8.70
2023-02-01T04:45:09.603Z,8.59
2023-02-01T04:46:09.740Z,8.56
2023-02-01T04:47:09.721Z,8.58
2023-02-01T04:48:09.591Z,8.74
2023-02-01T04:49:09.583Z,8.66
2023-02-01T04:50:09.579Z,8.71
2023-02-01T04:51:09.584Z,8.79
2023-02-01T04:52:09.572Z,8.74
2023-02-01T04:53:09.568Z,8.63
2023-02-01T04:54:09.560Z,8.80
2023-02-01T04:55:09.594Z,8.79
2023-02-01T04:56:09.553Z,8.66
2023-02-01T04:57:09.548Z,8.71
2023-02-01T04:58:09.543Z,8.76
2023-02-01T04:59:09.537Z,8.86
2023-02-01T05:00:09.543Z,8.81
2023-02-01T05:01:09.620Z,8.84
2023-02-01T05:02:09.523Z,8.86
2023-02-01T05:03:09.545Z,8.83
2023-02-01T05:04:09.522Z,8.79
2023-02-01T05:05:09.512Z,8.76
2023-02-01T05:06:09.507Z,8.74
2023-02-01T05:07:09.521Z,8.70
2023-02-01T05:08:09.508Z,8.70
2023-02-01T05:09:09.490Z,8.81
2023-02-01T05:10:09.483Z,8.81
2023-02-01T05:11:09.490Z,8.81
2023-02-01T05:12:09.502Z,8.94
2023-02-01T05:13:09.492Z,8.80
2023-02-01T05:14:09.466Z,8.84
2023-02-01T05:15:09.465Z,8.94
2023-02-01T05:16:09.509Z,8.96
2023-02-01T05:17:09.463Z,9.08
2023-02-01T05:18:09.463Z,8.96
2023-02-01T05:19:09.470Z,9.04
2023-02-01T05:20:09.437Z,9.08
2023-02-01T05:21:09.439Z,9.08
2023-02-01T05:22:09.429Z,8.99
2023-02-01T05:23:09.431Z,9.01
2023-02-01T05:24:09.423Z,8.99
2023-02-01T05:25:09.450Z,9.05
2023-02-01T05:26:09.427Z,9.20
2023-02-01T05:27:09.410Z,9.15
2023-02-01T05:28:09.403Z,9.20
2023-02-01T05:29:09.392Z,9.14
2023-02-01T05:30:09.385Z,9.18
2023-02-01T05:31:09.492Z,8.96
2023-02-01T05:32:21.605Z,9.08
2023-02-01T05:33:09.385Z,9.05
2023-02-01T05:34:09.374Z,9.11
2023-02-01T05:35:09.404Z,9.04
2023-02-01T05:36:09.365Z,8.99
2023-02-01T05:37:09.369Z,9.11
2023-02-01T05:38:09.356Z,9.18
2023-02-01T05:40:53.077Z,9.08
2023-02-01T05:41:53.062Z,9.13
2023-02-01T05:42:53.063Z,9.04
2023-02-01T05:43:53.057Z,9.05
2023-02-01T05:44:53.057Z,9.20
2023-02-01T05:45:53.055Z,9.05
2023-02-01T05:46:53.052Z,8.98
2023-02-01T05:47:53.042Z,9.05
2023-02-01T05:48:53.036Z,8.99
2023-02-01T05:49:53.027Z,9.10
2023-02-01T05:50:53.051Z,9.08
2023-02-01T05:51:53.021Z,9.08
2023-02-01T05:52:53.016Z,9.08
2023-02-01T05:53:53.012Z,9.11
2023-02-01T05:54:53.010Z,9.14
2023-02-01T05:55:53.011Z,9.28
2023-02-01T05:56:53.002Z,9.17
2023-02-01T05:57:52.988Z,9.18
2023-02-01T05:58:52.997Z,9.18
2023-02-01T05:59:52.988Z,9.11
2023-02-01T06:00:52.991Z,9.15
2023-02-01T06:01:52.975Z,9.05
2023-02-01T06:02:53.037Z,9.10
2023-02-01T06:03:53.020Z,9.04
2023-02-01T06:04:52.988Z,8.99
2023-02-01T06:05:52.960Z,9.05
2023-02-01T06:06:52.986Z,9.21
2023-02-01T06:07:52.950Z,9.17
2023-02-01T06:08:52.954Z,9.13
2023-02-01T06:09:52.936Z,9.23
2023-02-01T06:10:52.940Z,8.98
2023-02-01T06:11:52.935Z,9.04
2023-02-01T06:12:52.927Z,9.18
2023-02-01T06:13:52.922Z,9.05
2023-02-01T06:14:52.920Z,9.08
2023-02-01T06:15:52.969Z,9.05
2023-02-01T06:16:52.908Z,9.02
2023-02-01T06:17:52.916Z,9.08
2023-02-01T06:18:52.968Z,8.98
2023-02-01T06:19:52.901Z,8.98
2023-02-01T06:20:52.904Z,9.17
2023-02-01T06:21:52.891Z,9.17
2023-02-01T06:22:52.916Z,9.11
2023-02-01T06:23:52.891Z,9.05
2023-02-01T06:24:52.881Z,9.04
2023-02-01T06:25:52.881Z,9.05
2023-02-01T06:26:52.917Z,9.08
2023-02-01T06:27:52.865Z,9.10
2023-02-01T06:28:52.863Z,9.08
2023-02-01T06:29:52.848Z,8.98
2023-02-01T06:30:52.916Z,8.96
2023-02-01T06:31:52.979Z,8.89
2023-02-01T06:32:52.840Z,9.01
2023-02-01T06:33:52.831Z,8.96
2023-02-01T06:34:52.835Z,8.81
2023-02-01T06:35:52.823Z,8.76
2023-02-01T06:36:52.826Z,8.81
2023-02-01T06:37:52.814Z,8.76
2023-02-01T06:38:52.840Z,8.70
2023-02-01T06:39:52.810Z,8.71
2023-02-01T06:40:52.812Z,8.70
2023-02-01T06:41:52.798Z,8.76
2023-02-01T06:42:52.797Z,8.70
2023-02-01T06:43:52.796Z,8.71
2023-02-01T06:44:52.788Z,8.65
2023-02-01T06:45:52.777Z,8.79
2023-02-01T06:46:52.918Z,8.61
2023-02-01T06:47:52.770Z,8.61
2023-02-01T06:48:52.765Z,8.59
2023-02-01T06:49:52.765Z,8.58
2023-02-01T06:50:52.758Z,8.59
2023-02-01T06:51:52.754Z,8.58
2023-02-01T06:52:52.746Z,8.56
2023-02-01T06:53:52.751Z,8.66
2023-02-01T06:54:52.763Z,8.59
2023-02-01T06:55:52.727Z,8.53
2023-02-01T06:56:52.738Z,8.58
2023-02-01T06:57:52.725Z,8.58
2023-02-01T06:58:52.721Z,8.41
2023-02-01T06:59:52.710Z,8.44
2023-02-01T07:00:52.744Z,8.55
2023-02-01T07:01:52.766Z,8.47
2023-02-01T07:02:52.702Z,8.59
2023-02-01T07:03:52.692Z,8.63
2023-02-01T07:04:52.692Z,8.55
2023-02-01T07:05:52.683Z,8.41
2023-02-01T07:06:52.684Z,8.48
2023-02-01T07:07:52.678Z,8.45
2023-02-01T07:08:52.694Z,8.37
2023-02-01T07:09:52.665Z,8.30
2023-02-01T07:10:52.686Z,8.30
2023-02-01T07:11:52.654Z,8.41
2023-02-01T07:12:52.672Z,8.40
2023-02-01T07:13:52.671Z,8.36
2023-02-01T07:14:52.648Z,8.40
2023-02-01T07:15:52.710Z,8.43
2023-02-01T07:16:52.639Z,8.36
2023-02-01T07:17:52.637Z,8.33
2023-02-01T07:18:52.627Z,8.41
2023-02-01T07:19:52.612Z,8.40
2023-02-01T07:20:52.634Z,8.47
2023-02-01T07:21:52.608Z,8.44
2023-02-01T07:22:52.613Z,8.40
2023-02-01T07:23:52.597Z,8.43
2023-02-01T07:24:52.604Z,8.48
2023-02-01T07:25:52.585Z,8.38
2023-02-01T07:26:52.656Z,8.47
2023-02-01T07:27:52.578Z,8.52
2023-02-01T07:28:52.580Z,8.43
2023-02-01T07:29:52.573Z,8.47
2023-02-01T07:30:52.602Z,8.56
2023-02-01T07:31:52.565Z,8.45
2023-02-01T07:32:52.577Z,8.44
2023-02-01T07:33:52.600Z,8.45
2023-02-01T07:34:52.554Z,8.50
2023-02-01T07:35:52.551Z,8.45
2023-02-01T07:36:52.539Z,8.33
2023-02-01T07:37:52.537Z,8.40
2023-02-01T07:38:54.654Z,8.43
2023-02-01T07:39:52.522Z,8.30
2023-02-01T07:40:52.519Z,8.44
2023-02-01T07:41:52.519Z,8.47
2023-02-01T07:42:52.550Z,8.41
2023-02-01T07:43:52.558Z,8.63
2023-02-01T07:44:52.502Z,8.62
2023-02-01T07:45:52.537Z,8.66
2023-02-01T07:46:52.511Z,8.73
2023-02-01T07:47:52.487Z,8.81
2023-02-01T07:48:52.498Z,8.76
2023-02-01T07:49:52.475Z,8.74
2023-02-01T07:50:52.471Z,8.76
2023-02-01T07:51:52.463Z,8.79
2023-02-01T07:52:52.460Z,8.83
2023-02-01T07:53:53.389Z,8.80
2023-02-01T07:54:52.458Z,8.87
2023-02-01T07:55:52.457Z,8.73
2023-02-01T07:56:52.445Z,8.87
2023-02-01T07:57:52.439Z,8.80
2023-02-01T07:58:52.493Z,8.89
2023-02-01T07:59:52.434Z,8.77
2023-02-01T08:00:52.446Z,8.79
2023-02-01T08:01:52.463Z,8.83
2023-02-01T08:02:52.418Z,8.65
2023-02-01T08:03:52.408Z,8.47
2023-02-01T08:04:52.407Z,8.38
2023-02-01T08:05:52.403Z,8.41
2023-02-01T08:06:52.417Z,8.36
2023-02-01T08:07:52.389Z,8.40
2023-02-01T08:08:52.393Z,8.40
2023-02-01T08:09:52.383Z,8.36
2023-02-01T08:10:52.380Z,8.26
2023-02-01T08:11:52.384Z,8.23
2023-02-01T08:12:52.369Z,8.05
2023-02-01T08:13:52.364Z,7.97
2023-02-01T08:14:52.391Z,8.08
2023-02-01T08:15:52.352Z,8.00
2023-02-01T08:16:52.478Z,7.95
2023-02-01T08:17:52.344Z,7.89
2023-02-01T08:18:52.345Z,7.83
2023-02-01T08:19:52.340Z,7.82
2023-02-01T08:20:52.333Z,7.71
2023-02-01T08:21:52.328Z,7.87
2023-02-01T08:22:54.373Z,7.95
2023-02-01T08:23:52.314Z,7.75
2023-02-01T08:24:52.314Z,7.74
2023-02-01T08:25:52.316Z,7.93
2023-02-01T08:26:52.379Z,7.85
2023-02-01T08:27:52.317Z,7.79
2023-02-01T08:28:52.294Z,7.72
2023-02-01T08:29:52.296Z,7.89
2023-02-01T08:30:52.323Z,7.93
2023-02-01T08:31:52.310Z,8.01
2023-02-01T08:32:52.276Z,8.04
2023-02-01T08:33:52.275Z,7.80
2023-02-01T08:34:52.264Z,7.79
2023-02-01T08:35:52.256Z,7.80
2023-02-01T08:36:52.329Z,7.85
2023-02-01T08:37:52.252Z,7.93
2023-02-01T08:38:52.263Z,7.74
2023-02-01T08:39:52.248Z,7.90
2023-02-01T08:40:52.260Z,8.02
2023-02-01T08:41:52.228Z,7.93
2023-02-01T08:42:52.244Z,7.97
2023-02-01T08:43:52.222Z,8.08
2023-02-01T08:44:52.232Z,7.97
2023-02-01T08:45:52.234Z,7.95
2023-02-01T08:46:52.231Z,7.90
2023-02-01T08:47:52.203Z,7.89
2023-02-01T08:48:52.217Z,7.75
2023-02-01T08:49:52.186Z,7.83
2023-02-01T08:50:52.197Z,7.79
2023-02-01T08:51:52.444Z,7.79
2023-02-01T08:52:52.178Z,7.87
2023-02-01T08:53:52.187Z,7.74
2023-02-01T08:54:52.174Z,7.75
2023-02-01T08:55:52.152Z,7.80
2023-02-01T08:56:52.241Z,7.68
2023-02-01T08:57:52.151Z,7.77
2023-02-01T08:58:52.147Z,7.77
2023-02-01T08:59:52.143Z,7.83
2023-02-01T09:00:52.136Z,7.85
2023-02-01T09:01:52.132Z,7.74
2023-02-01T09:02:52.156Z,7.72
2023-02-01T09:03:52.214Z,7.74
2023-02-01T09:04:52.114Z,7.89
2023-02-01T09:05:54.263Z,7.79
2023-02-01T09:06:52.111Z,7.79
2023-02-01T09:07:52.113Z,7.90
2023-02-01T09:08:52.098Z,7.86
2023-02-01T09:09:52.091Z,7.75
2023-02-01T09:10:52.096Z,7.72
2023-02-01T09:11:52.077Z,7.68
2023-02-01T09:12:52.073Z,7.75
2023-02-01T09:13:52.067Z,7.85
2023-02-01T09:14:52.117Z,7.86
2023-02-01T09:15:52.105Z,7.93
2023-02-01T09:16:52.072Z,7.87
2023-02-01T09:17:52.053Z,7.86
2023-02-01T09:18:56.676Z,7.85
2023-02-01T09:19:52.043Z,7.93
2023-02-01T09:20:52.036Z,8.00
2023-02-01T09:21:52.030Z,7.90
2023-02-01T09:22:52.029Z,8.05
2023-02-01T09:23:52.030Z,7.95
2023-02-01T09:24:53.538Z,8.15
2023-02-01T09:25:52.010Z,8.07
2023-02-01T09:26:52.021Z,8.05
2023-02-01T09:27:52.002Z,7.98
2023-02-01T09:28:51.995Z,8.00
2023-02-01T09:29:51.998Z,7.93
2023-02-01T09:30:52.071Z,8.00
2023-02-01T09:32:02.870Z,8.05
2023-02-01T09:32:52.018Z,8.04
2023-02-01T09:33:51.971Z,8.18
2023-02-01T09:34:52.012Z,8.07
2023-02-01T09:35:51.972Z,8.05
2023-02-01T09:36:51.958Z,8.28
2023-02-01T09:37:51.959Z,8.12
2023-02-01T09:38:53.177Z,8.12
2023-02-01T09:39:51.938Z,8.10
2023-02-01T09:40:51.958Z,8.07
2023-02-01T09:41:51.937Z,8.15
2023-02-01T09:42:51.926Z,8.11
2023-02-01T09:43:51.933Z,8.04
2023-02-01T09:44:51.917Z,8.11
2023-02-01T09:45:51.945Z,8.11
2023-02-01T09:46:51.911Z,8.12
2023-02-01T09:47:51.903Z,8.16
2023-02-01T09:48:51.901Z,8.19
2023-02-01T09:49:51.893Z,8.11
2023-02-01T09:50:51.911Z,8.20
2023-02-01T09:51:51.879Z,8.23
2023-02-01T09:52:51.884Z,8.36
2023-02-01T09:53:51.876Z,8.28
2023-02-01T09:54:51.870Z,8.28
2023-02-01T09:55:51.872Z,8.33
2023-02-01T09:56:51.865Z,8.28
2023-02-01T09:57:51.858Z,8.34
2023-02-01T09:58:51.847Z,8.29
2023-02-01T09:59:51.846Z,8.20
2023-02-01T10:00:51.836Z,8.30
2023-02-01T10:01:51.952Z,8.33
2023-02-01T10:02:51.832Z,8.29
2023-02-01T10:03:51.857Z,8.47
2023-02-01T10:04:51.822Z,8.38
2023-02-01T10:05:51.834Z,8.26
2023-02-01T10:06:51.840Z,8.37
2023-02-01T10:07:51.813Z,8.30
2023-02-01T10:08:51.810Z,8.33
2023-02-01T10:09:51.805Z,8.36
2023-02-01T10:10:51.795Z,8.41
2023-02-01T10:11:51.796Z,8.30
2023-02-01T10:12:51.784Z,8.40
2023-02-01T10:13:51.790Z,8.40
2023-02-01T10:14:51.771Z,8.43
2023-02-01T10:15:51.874Z,8.58
2023-02-01T10:16:51.988Z,8.66
2023-02-01T10:17:51.765Z,8.41
2023-02-01T10:18:51.753Z,8.45
2023-02-01T10:19:51.753Z,8.44
2023-02-01T10:20:51.755Z,8.41
2023-02-01T10:21:51.742Z,8.45
2023-02-01T10:23:13.785Z,8.40
2023-02-01T10:23:51.734Z,8.28
2023-02-01T10:24:51.722Z,8.40
2023-02-01T10:25:51.727Z,8.47
2023-02-01T10:26:51.832Z,8.37
2023-02-01T10:27:51.716Z,8.22
2023-02-01T10:28:51.709Z,8.29
2023-02-01T10:29:51.711Z,8.30
2023-02-01T10:30:51.875Z,8.30
2023-02-01T10:31:51.900Z,8.34
2023-02-01T10:32:51.695Z,8.26
2023-02-01T10:33:51.689Z,8.25
2023-02-01T10:34:51.681Z,8.22
2023-02-01T10:35:51.681Z,8.22
2023-02-01T10:36:51.670Z,8.23
2023-02-01T10:37:51.669Z,8.23
2023-02-01T10:38:51.705Z,8.26
2023-02-01T10:39:51.657Z,8.19
2023-02-01T10:40:51.657Z,8.41
2023-02-01T10:41:51.646Z,8.29
2023-02-01T10:42:51.648Z,8.23
2023-02-01T10:43:51.650Z,8.25
2023-02-01T10:44:51.659Z,8.33
2023-02-01T10:45:51.636Z,8.41
2023-02-01T10:46:51.631Z,8.43
2023-02-01T10:47:51.640Z,8.41
2023-02-01T10:48:51.625Z,8.48
2023-02-01T10:49:51.626Z,8.74
2023-02-01T10:50:51.606Z,8.71
2023-02-01T10:51:51.606Z,8.70
2023-02-01T10:52:51.593Z,8.80
2023-02-01T10:53:51.598Z,8.77
2023-02-01T10:54:51.664Z,8.71
2023-02-01T10:55:51.587Z,8.89
2023-02-01T10:56:51.589Z,8.92
2023-02-01T10:57:51.584Z,9.02
2023-02-01T10:58:51.567Z,9.01
2023-02-01T10:59:51.565Z,8.92
2023-02-01T11:00:51.555Z,8.89
2023-02-01T11:01:51.643Z,8.76
2023-02-01T11:02:51.589Z,8.71
2023-02-01T11:03:51.546Z,8.73
2023-02-01T11:04:51.547Z,8.80
2023-02-01T11:05:51.540Z,8.80
2023-02-01T11:06:51.532Z,8.74
2023-02-01T11:07:51.533Z,8.79
2023-02-01T11:08:51.521Z,8.73
2023-02-01T11:09:51.531Z,8.65
2023-02-01T11:10:51.539Z,8.70
2023-02-01T11:11:51.523Z,8.55
2023-02-01T11:12:51.507Z,8.41
2023-02-01T11:13:51.503Z,8.45
2023-02-01T11:14:51.501Z,8.50
2023-02-01T11:15:51.509Z,8.55
2023-02-01T11:16:51.488Z,8.58
2023-02-01T11:17:51.489Z,8.61
2023-02-01T11:18:51.476Z,8.74
2023-02-01T11:19:51.497Z,8.79
2023-02-01T11:20:51.471Z,8.81
2023-02-01T11:21:51.479Z,8.94
2023-02-01T11:22:51.460Z,8.92
2023-02-01T11:23:51.459Z,8.79
2023-02-01T11:24:51.451Z,8.86
2023-02-01T11:25:51.448Z,8.98
2023-02-01T11:26:51.518Z,9.04
2023-02-01T11:27:55.358Z,9.13
2023-02-01T11:28:51.446Z,9.18
2023-02-01T11:29:51.430Z,9.08
2023-02-01T11:30:51.456Z,9.18
2023-02-01T11:31:51.492Z,9.20
2023-02-01T11:32:51.414Z,9.15
2023-02-01T11:33:51.420Z,9.28
2023-02-01T11:34:51.402Z,9.31
2023-02-01T11:35:51.411Z,9.36
2023-02-01T11:36:51.404Z,9.46
2023-02-01T11:37:51.404Z,9.42
2023-02-01T11:38:51.392Z,9.61
2023-02-01T11:39:51.385Z,9.65
2023-02-01T11:40:51.381Z,9.75
2023-02-01T11:41:51.381Z,9.94
2023-02-01T11:42:51.423Z,10.12
2023-02-01T11:43:51.372Z,10.15
2023-02-01T11:44:51.361Z,10.45
2023-02-01T11:45:51.363Z,10.63
2023-02-01T11:46:51.387Z,10.74
2023-02-01T11:47:51.351Z,10.78
2023-02-01T11:48:51.346Z,10.82
2023-02-01T11:49:51.357Z,10.79
2023-02-01T11:50:51.345Z,10.66
2023-02-01T11:51:51.347Z,10.74
2023-02-01T11:52:51.343Z,10.73
2023-02-01T11:53:51.339Z,10.61
2023-02-01T11:54:51.355Z,10.53
2023-02-01T11:55:51.324Z,10.44
2023-02-01T11:56:51.321Z,10.52
2023-02-01T11:57:51.320Z,10.30
2023-02-01T11:58:51.340Z,10.51
2023-02-01T11:59:56.842Z,10.40
2023-02-01T12:00:51.315Z,10.41
2023-02-01T12:01:51.339Z,10.33
2023-02-01T12:02:51.347Z,10.20
2023-02-01T12:03:51.292Z,10.07
2023-02-01T12:04:51.286Z,9.99
2023-02-01T12:05:51.314Z,10.04
2023-02-01T12:06:51.275Z,10.23
2023-02-01T12:07:51.281Z,10.20
2023-02-01T12:08:51.271Z,10.22
2023-02-01T12:09:51.274Z,10.23
2023-02-01T12:10:51.262Z,10.29
2023-02-01T12:11:51.263Z,10.30
2023-02-01T12:12:51.255Z,10.23
2023-02-01T12:13:51.253Z,10.27
2023-02-01T12:14:51.269Z,10.30
2023-02-01T12:15:51.261Z,10.44
2023-02-01T12:16:51.273Z,10.40
2023-02-01T12:17:51.243Z,10.41
2023-02-01T12:18:51.260Z,10.42
2023-02-01T12:19:51.231Z,10.56
2023-02-01T12:20:51.234Z,10.61
2023-02-01T12:21:51.233Z,10.79
2023-02-01T12:22:51.216Z,10.81
2023-02-01T12:23:51.214Z,10.86
2023-02-01T12:24:51.217Z,10.64
2023-02-01T12:25:51.208Z,10.60
2023-02-01T12:26:51.271Z,10.56
2023-02-01T12:27:51.204Z,10.61
2023-02-01T12:28:51.197Z,10.64
2023-02-01T12:29:51.195Z,10.42
2023-02-01T12:30:51.291Z,10.45
2023-02-01T12:31:51.213Z,10.52
2023-02-01T12:32:51.181Z,10.36
2023-02-01T12:33:51.191Z,10.29
2023-02-01T12:34:51.218Z,10.41
2023-02-01T12:35:51.175Z,10.40
2023-02-01T12:36:51.169Z,10.42
2023-02-01T12:37:51.182Z,10.36
2023-02-01T12:38:51.157Z,10.22
2023-02-01T12:39:51.167Z,10.25
2023-02-01T12:40:51.156Z,10.17
2023-02-01T12:41:51.154Z,10.12
2023-02-01T12:42:51.152Z,10.12
2023-02-01T12:43:51.148Z,10.15
2023-02-01T12:44:51.142Z,10.14
2023-02-01T12:45:51.192Z,10.05
2023-02-01T12:46:51.152Z,10.14
2023-02-01T12:47:51.131Z,10.12
2023-02-01T12:48:51.123Z,10.26
2023-02-01T12:49:51.124Z,10.11
2023-02-01T12:50:51.117Z,9.91
2023-02-01T12:51:51.116Z,9.91
2023-02-01T12:52:51.112Z,9.83
2023-02-01T12:53:51.126Z,9.94
2023-02-01T12:54:51.143Z,9.90
2023-02-01T12:55:51.705Z,9.83
2023-02-01T12:56:51.100Z,9.74
2023-02-01T12:57:51.093Z,9.78
2023-02-01T12:58:51.094Z,9.78
2023-02-01T12:59:51.095Z,9.75
2023-02-01T13:00:51.128Z,9.74
2023-02-01T13:01:51.082Z,9.76
2023-02-01T13:02:51.106Z,9.74
2023-02-01T13:03:51.074Z,9.65
2023-02-01T13:04:51.079Z,9.71
2023-02-01T13:05:51.066Z,9.75
2023-02-01T13:06:51.059Z,9.64
2023-02-01T13:07:51.056Z,9.64
2023-02-01T13:08:51.068Z,9.81
2023-02-01T13:09:51.039Z,9.76
2023-02-01T13:10:51.042Z,9.86
2023-02-01T13:11:51.035Z,9.87
2023-02-01T13:12:51.037Z,9.93
2023-02-01T13:13:51.031Z,9.89
2023-02-01T13:14:51.022Z,9.86
2023-02-01T13:15:51.036Z,9.93
2023-02-01T13:16:51.085Z,9.93
2023-02-01T13:17:51.017Z,9.83